sensor_id;sensor_type;location;lat;lon;timestamp;pressure;altitude;pressure_sealevel;temperature;humidity
20889;BME280;10604;51.976;7.594;2023-04-24T09:03:54;99426.72;;;12.81;72.62
20889;BME280;10604;51.976;7.594;2023-04-24T09:06:20;99437.53;;;13.07;71.13
20889;BME280;10604;51.976;7.594;2023-04-24T09:08:46;99440.72;;;12.83;70.75
20889;BME280;10604;51.976;7.594;2023-04-24T09:11:13;99436.44;;;12.67;71.73
20889;BME280;10604;51.976;7.594;2023-04-24T09:13:38;99438.34;;;12.79;71.22
20889;BME280;10604;51.976;7.594;2023-04-24T09:16:04;99438.84;;;12.85;71.33
20889;BME280;10604;51.976;7.594;2023-04-24T09:18:30;99444.84;;;12.73;71.33
20889;BME280;10604;51.976;7.594;2023-04-24T09:21:02;99450.56;;;12.95;71.27
20889;BME280;10604;51.976;7.594;2023-04-24T09:23:28;99456.81;;;12.94;71.92
20889;BME280;10604;51.976;7.594;2023-04-24T09:25:54;99453.41;;;12.78;72.93
20889;BME280;10604;51.976;7.594;2023-04-24T09:28:20;99465.50;;;12.97;72.80
20889;BME280;10604;51.976;7.594;2023-04-24T09:31:01;99465.38;;;13.14;72.95
20889;BME280;10604;51.976;7.594;2023-04-24T09:33:26;99460.78;;;13.02;74.17
20889;BME280;10604;51.976;7.594;2023-04-24T09:35:52;99473.25;;;12.85;74.75
20889;BME280;10604;51.976;7.594;2023-04-24T09:38:17;99464.91;;;12.77;75.30
20889;BME280;10604;51.976;7.594;2023-04-24T09:40:42;99475.25;;;12.66;76.23
20889;BME280;10604;51.976;7.594;2023-04-24T09:43:10;99473.34;;;12.84;76.62
20889;BME280;10604;51.976;7.594;2023-04-24T09:45:36;99473.78;;;12.46;77.62
20889;BME280;10604;51.976;7.594;2023-04-24T09:48:01;99485.00;;;12.66;76.86
20889;BME280;10604;51.976;7.594;2023-04-24T09:50:29;99490.25;;;12.81;77.47
20889;BME280;10604;51.976;7.594;2023-04-24T09:52:57;99496.06;;;12.72;78.50
20889;BME280;10604;51.976;7.594;2023-04-24T09:55:22;99505.56;;;12.90;78.48
20889;BME280;10604;51.976;7.594;2023-04-24T09:57:51;99499.97;;;12.81;77.79
20889;BME280;10604;51.976;7.594;2023-04-24T10:00:18;99507.66;;;12.85;77.67
20889;BME280;10604;51.976;7.594;2023-04-24T10:02:43;99509.53;;;12.83;78.81
20889;BME280;10604;51.976;7.594;2023-04-24T10:05:09;99513.31;;;13.23;78.00
20889;BME280;10604;51.976;7.594;2023-04-24T10:07:37;99518.63;;;13.08;77.80
20889;BME280;10604;51.976;7.594;2023-04-24T10:10:02;99512.94;;;12.85;77.80
20889;BME280;10604;51.976;7.594;2023-04-24T10:12:28;99514.28;;;12.92;78.01
20889;BME280;10604;51.976;7.594;2023-04-24T10:14:54;99523.53;;;12.85;78.61
20889;BME280;10604;51.976;7.594;2023-04-24T10:17:19;99537.09;;;12.79;79.41
20889;BME280;10604;51.976;7.594;2023-04-24T10:19:46;99526.25;;;12.84;79.90
20889;BME280;10604;51.976;7.594;2023-04-24T10:22:12;99529.59;;;13.02;79.50
20889;BME280;10604;51.976;7.594;2023-04-24T10:24:37;99533.84;;;12.90;80.16
20889;BME280;10604;51.976;7.594;2023-04-24T10:27:03;99533.59;;;13.09;79.33
20889;BME280;10604;51.976;7.594;2023-04-24T10:29:30;99538.75;;;13.26;78.91
20889;BME280;10604;51.976;7.594;2023-04-24T10:31:56;99544.16;;;13.09;78.24
20889;BME280;10604;51.976;7.594;2023-04-24T10:34:21;99545.50;;;13.46;78.97
20889;BME280;10604;51.976;7.594;2023-04-24T10:36:48;99544.47;;;13.48;78.15
20889;BME280;10604;51.976;7.594;2023-04-24T10:39:15;99556.56;;;13.52;78.22
20889;BME280;10604;51.976;7.594;2023-04-24T10:41:41;99567.34;;;13.35;77.81
20889;BME280;10604;51.976;7.594;2023-04-24T10:44:13;99556.91;;;12.72;79.10
20889;BME280;10604;51.976;7.594;2023-04-24T10:46:43;99577.84;;;12.77;79.82
20889;BME280;10604;51.976;7.594;2023-04-24T10:49:08;99594.97;;;12.85;79.35
20889;BME280;10604;51.976;7.594;2023-04-24T10:51:52;99600.97;;;13.03;78.76
20889;BME280;10604;51.976;7.594;2023-04-24T10:54:25;99613.84;;;12.79;78.78
20889;BME280;10604;51.976;7.594;2023-04-24T10:56:51;99625.25;;;12.50;78.54
20889;BME280;10604;51.976;7.594;2023-04-24T10:59:26;99630.41;;;12.67;77.79
20889;BME280;10604;51.976;7.594;2023-04-24T11:01:52;99624.19;;;12.05;77.95
20889;BME280;10604;51.976;7.594;2023-04-24T11:04:22;99647.50;;;12.46;77.74
20889;BME280;10604;51.976;7.594;2023-04-24T11:06:53;99653.19;;;12.23;77.98
20889;BME280;10604;51.976;7.594;2023-04-24T11:09:19;99652.97;;;12.43;78.59
20889;BME280;10604;51.976;7.594;2023-04-24T11:11:46;99663.69;;;12.40;77.36
20889;BME280;10604;51.976;7.594;2023-04-24T11:14:13;99674.59;;;12.18;77.62
20889;BME280;10604;51.976;7.594;2023-04-24T11:19:08;99674.09;;;12.59;77.91
20889;BME280;10604;51.976;7.594;2023-04-24T11:26:51;99699.38;;;12.95;78.07
20889;BME280;10604;51.976;7.594;2023-04-24T11:29:16;99699.88;;;13.02;77.92
20889;BME280;10604;51.976;7.594;2023-04-24T11:31:44;99709.81;;;13.14;78.35
20889;BME280;10604;51.976;7.594;2023-04-24T11:34:14;99700.22;;;12.96;78.10
20889;BME280;10604;51.976;7.594;2023-04-24T11:36:44;99703.56;;;13.00;77.64
20889;BME280;10604;51.976;7.594;2023-04-24T11:39:10;99708.09;;;13.13;77.68
20889;BME280;10604;51.976;7.594;2023-04-24T11:41:36;99705.84;;;12.74;78.27
20889;BME280;10604;51.976;7.594;2023-04-24T11:44:02;99711.16;;;12.43;79.82
20889;BME280;10604;51.976;7.594;2023-04-24T11:46:29;99712.78;;;12.12;80.01
20889;BME280;10604;51.976;7.594;2023-04-24T11:48:55;99733.88;;;12.30;81.21
20889;BME280;10604;51.976;7.594;2023-04-24T11:51:20;99740.97;;;12.45;80.73
20889;BME280;10604;51.976;7.594;2023-04-24T11:53:47;99750.38;;;12.18;79.67
20889;BME280;10604;51.976;7.594;2023-04-24T11:56:13;99738.56;;;12.25;80.50
20889;BME280;10604;51.976;7.594;2023-04-24T11:58:42;99729.16;;;12.19;79.79
20889;BME280;10604;51.976;7.594;2023-04-24T12:01:07;99762.88;;;12.64;80.02
20889;BME280;10604;51.976;7.594;2023-04-24T12:03:32;99761.31;;;12.60;79.24
20889;BME280;10604;51.976;7.594;2023-04-24T12:06:06;99765.00;;;12.25;78.53
20889;BME280;10604;51.976;7.594;2023-04-24T12:08:32;99770.53;;;12.53;78.95
20889;BME280;10604;51.976;7.594;2023-04-24T12:10:59;99775.47;;;12.59;77.91
20889;BME280;10604;51.976;7.594;2023-04-24T12:13:25;99782.16;;;12.66;78.25
20889;BME280;10604;51.976;7.594;2023-04-24T12:15:50;99788.78;;;12.42;79.33
20889;BME280;10604;51.976;7.594;2023-04-24T12:18:16;99783.63;;;12.39;79.10
20889;BME280;10604;51.976;7.594;2023-04-24T12:20:43;99797.81;;;12.03;78.92
20889;BME280;10604;51.976;7.594;2023-04-24T12:23:09;99793.94;;;12.10;78.83
20889;BME280;10604;51.976;7.594;2023-04-24T12:25:34;99790.56;;;12.41;78.24
20889;BME280;10604;51.976;7.594;2023-04-24T12:30:28;99804.09;;;12.35;77.68
20889;BME280;10604;51.976;7.594;2023-04-24T12:32:54;99796.31;;;12.49;76.46
20889;BME280;10604;51.976;7.594;2023-04-24T12:35:20;99804.59;;;13.23;76.27
20889;BME280;10604;51.976;7.594;2023-04-24T12:37:46;99808.38;;;13.19;75.46
20889;BME280;10604;51.976;7.594;2023-04-24T12:40:12;99807.00;;;13.28;75.47
20889;BME280;10604;51.976;7.594;2023-04-24T12:42:55;99812.53;;;13.55;75.18
20889;BME280;10604;51.976;7.594;2023-04-24T12:45:20;99818.38;;;13.76;74.36
20889;BME280;10604;51.976;7.594;2023-04-24T12:47:48;99818.63;;;13.41;74.32
20889;BME280;10604;51.976;7.594;2023-04-24T12:50:14;99815.34;;;13.36;74.65
20889;BME280;10604;51.976;7.594;2023-04-24T12:52:40;99829.63;;;13.18;75.88
20889;BME280;10604;51.976;7.594;2023-04-24T12:55:05;99825.47;;;13.14;74.97
20889;BME280;10604;51.976;7.594;2023-04-24T12:57:35;99836.91;;;13.14;74.88
20889;BME280;10604;51.976;7.594;2023-04-24T13:00:00;99843.19;;;13.12;73.74
20889;BME280;10604;51.976;7.594;2023-04-24T13:02:27;99840.78;;;12.91;73.99
20889;BME280;10604;51.976;7.594;2023-04-24T13:04:53;99841.84;;;12.87;74.86
20889;BME280;10604;51.976;7.594;2023-04-24T13:07:19;99844.59;;;13.19;74.95
20889;BME280;10604;51.976;7.594;2023-04-24T13:09:44;99835.47;;;12.91;75.19
20889;BME280;10604;51.976;7.594;2023-04-24T13:12:10;99849.47;;;12.93;75.11
20889;BME280;10604;51.976;7.594;2023-04-24T13:14:35;99854.44;;;12.67;75.09
20889;BME280;10604;51.976;7.594;2023-04-24T13:17:01;99853.06;;;13.08;75.63
20889;BME280;10604;51.976;7.594;2023-04-24T13:19:26;99846.66;;;12.97;74.92
20889;BME280;10604;51.976;7.594;2023-04-24T13:21:52;99848.06;;;12.86;75.33
20889;BME280;10604;51.976;7.594;2023-04-24T13:24:18;99850.47;;;12.75;74.88
20889;BME280;10604;51.976;7.594;2023-04-24T13:26:43;99846.41;;;12.85;74.72
20889;BME280;10604;51.976;7.594;2023-04-24T13:29:08;99864.00;;;13.02;74.37
20889;BME280;10604;51.976;7.594;2023-04-24T13:31:34;99866.44;;;13.38;73.36
20889;BME280;10604;51.976;7.594;2023-04-24T13:33:59;99862.72;;;13.42;73.61
20889;BME280;10604;51.976;7.594;2023-04-24T13:36:24;99857.19;;;13.92;72.05
20889;BME280;10604;51.976;7.594;2023-04-24T13:38:50;99863.78;;;13.69;71.60
20889;BME280;10604;51.976;7.594;2023-04-24T13:41:15;99866.72;;;13.95;71.61
20889;BME280;10604;51.976;7.594;2023-04-24T13:43:40;99873.25;;;13.73;70.62
20889;BME280;10604;51.976;7.594;2023-04-24T13:46:07;99865.94;;;13.47;70.21
20889;BME280;10604;51.976;7.594;2023-04-24T13:48:33;99873.88;;;13.16;71.17
20889;BME280;10604;51.976;7.594;2023-04-24T13:50:58;99872.19;;;12.98;70.27
20889;BME280;10604;51.976;7.594;2023-04-24T13:53:23;99879.38;;;13.11;71.55
20889;BME280;10604;51.976;7.594;2023-04-24T13:55:48;99865.97;;;12.99;70.00
20889;BME280;10604;51.976;7.594;2023-04-24T13:58:13;99868.75;;;12.95;69.91
20889;BME280;10604;51.976;7.594;2023-04-24T14:00:40;99879.84;;;12.86;69.90
20889;BME280;10604;51.976;7.594;2023-04-24T14:03:05;99896.03;;;12.80;69.57
20889;BME280;10604;51.976;7.594;2023-04-24T14:05:30;99893.13;;;12.69;70.22
20889;BME280;10604;51.976;7.594;2023-04-24T14:07:55;99889.13;;;13.11;69.88
20889;BME280;10604;51.976;7.594;2023-04-24T14:10:20;99885.69;;;13.26;69.59
20889;BME280;10604;51.976;7.594;2023-04-24T14:12:46;99883.88;;;13.73;68.78
20889;BME280;10604;51.976;7.594;2023-04-24T14:15:11;99899.97;;;13.70;67.50
20889;BME280;10604;51.976;7.594;2023-04-24T14:17:38;99895.91;;;13.16;69.05
20889;BME280;10604;51.976;7.594;2023-04-24T14:20:04;99903.47;;;13.07;71.32
20889;BME280;10604;51.976;7.594;2023-04-24T14:22:29;99901.13;;;13.18;71.85
20889;BME280;10604;51.976;7.594;2023-04-24T14:24:55;99897.63;;;12.84;72.75
20889;BME280;10604;51.976;7.594;2023-04-24T14:27:20;99901.34;;;12.80;72.62
20889;BME280;10604;51.976;7.594;2023-04-24T14:29:45;99897.50;;;12.53;71.62
20889;BME280;10604;51.976;7.594;2023-04-24T14:32:10;99893.56;;;13.10;71.49
20889;BME280;10604;51.976;7.594;2023-04-24T14:34:36;99902.53;;;13.56;70.27
20889;BME280;10604;51.976;7.594;2023-04-24T14:37:01;99905.75;;;13.77;69.74
20889;BME280;10604;51.976;7.594;2023-04-24T14:39:27;99918.91;;;13.79;69.85
20889;BME280;10604;51.976;7.594;2023-04-24T14:41:53;99906.13;;;13.71;68.76
20889;BME280;10604;51.976;7.594;2023-04-24T14:44:18;99900.63;;;13.90;68.13
20889;BME280;10604;51.976;7.594;2023-04-24T14:46:43;99904.38;;;13.86;68.21
20889;BME280;10604;51.976;7.594;2023-04-24T14:49:09;99909.16;;;13.32;67.67
20889;BME280;10604;51.976;7.594;2023-04-24T14:51:35;99920.63;;;13.80;68.47
20889;BME280;10604;51.976;7.594;2023-04-24T14:54:00;99912.00;;;13.60;67.71
20889;BME280;10604;51.976;7.594;2023-04-24T14:56:25;99930.41;;;13.15;68.74
20889;BME280;10604;51.976;7.594;2023-04-24T14:58:51;99927.59;;;13.18;69.15
20889;BME280;10604;51.976;7.594;2023-04-24T15:01:16;99929.78;;;13.10;69.03
20889;BME280;10604;51.976;7.594;2023-04-24T15:03:41;99929.00;;;13.41;69.03
20889;BME280;10604;51.976;7.594;2023-04-24T15:06:06;99928.16;;;13.71;68.09
20889;BME280;10604;51.976;7.594;2023-04-24T15:08:32;99924.22;;;13.47;67.84
20889;BME280;10604;51.976;7.594;2023-04-24T15:10:57;99930.91;;;13.70;68.77
20889;BME280;10604;51.976;7.594;2023-04-24T15:13:23;99925.56;;;14.01;67.17
20889;BME280;10604;51.976;7.594;2023-04-24T15:18:16;99929.66;;;14.97;64.54
20889;BME280;10604;51.976;7.594;2023-04-24T15:20:41;99936.94;;;14.93;62.88
20889;BME280;10604;51.976;7.594;2023-04-24T15:23:09;99945.84;;;14.92;63.35
20889;BME280;10604;51.976;7.594;2023-04-24T15:25:35;99929.63;;;14.38;61.70
20889;BME280;10604;51.976;7.594;2023-04-24T15:28:00;99936.97;;;14.33;62.55
20889;BME280;10604;51.976;7.594;2023-04-24T15:30:25;99942.38;;;13.70;62.34
20889;BME280;10604;51.976;7.594;2023-04-24T15:32:51;99937.91;;;13.55;63.95
20889;BME280;10604;51.976;7.594;2023-04-24T15:35:16;99941.16;;;13.92;62.78
20889;BME280;10604;51.976;7.594;2023-04-24T15:37:42;99943.34;;;13.37;62.59
20889;BME280;10604;51.976;7.594;2023-04-24T15:40:07;99949.81;;;14.25;62.88
20889;BME280;10604;51.976;7.594;2023-04-24T15:42:33;99952.19;;;14.30;62.00
20889;BME280;10604;51.976;7.594;2023-04-24T15:44:58;99954.06;;;14.43;60.94
20889;BME280;10604;51.976;7.594;2023-04-24T15:47:24;99959.06;;;14.18;62.72
20889;BME280;10604;51.976;7.594;2023-04-24T15:49:49;99955.34;;;13.91;63.25
20889;BME280;10604;51.976;7.594;2023-04-24T15:52:14;99977.56;;;14.04;62.98
20889;BME280;10604;51.976;7.594;2023-04-24T15:54:40;99962.25;;;14.09;63.05
20889;BME280;10604;51.976;7.594;2023-04-24T15:57:05;99969.53;;;13.90;63.49
20889;BME280;10604;51.976;7.594;2023-04-24T15:59:31;99968.16;;;13.51;63.91
20889;BME280;10604;51.976;7.594;2023-04-24T16:01:56;99970.25;;;13.78;64.13
20889;BME280;10604;51.976;7.594;2023-04-24T16:04:21;99971.09;;;13.78;64.20
20889;BME280;10604;51.976;7.594;2023-04-24T16:06:46;99990.63;;;14.23;64.88
20889;BME280;10604;51.976;7.594;2023-04-24T16:09:12;99993.53;;;14.49;61.94
20889;BME280;10604;51.976;7.594;2023-04-24T16:11:39;99985.03;;;14.59;62.03
20889;BME280;10604;51.976;7.594;2023-04-24T16:14:04;99980.97;;;14.97;60.71
20889;BME280;10604;51.976;7.594;2023-04-24T16:16:29;99986.94;;;14.71;59.60
20889;BME280;10604;51.976;7.594;2023-04-24T16:18:55;99991.88;;;14.63;61.04
20889;BME280;10604;51.976;7.594;2023-04-24T16:21:20;99984.56;;;14.66;59.60
20889;BME280;10604;51.976;7.594;2023-04-24T16:23:45;99981.88;;;14.82;59.58
20889;BME280;10604;51.976;7.594;2023-04-24T16:26:11;99990.28;;;15.18;58.32
20889;BME280;10604;51.976;7.594;2023-04-24T16:28:36;99987.97;;;14.84;59.45
20889;BME280;10604;51.976;7.594;2023-04-24T16:31:01;99988.50;;;14.75;59.77
20889;BME280;10604;51.976;7.594;2023-04-24T16:33:27;99994.84;;;14.11;61.02
20889;BME280;10604;51.976;7.594;2023-04-24T16:35:52;99992.91;;;13.99;59.40
20889;BME280;10604;51.976;7.594;2023-04-24T16:38:17;99995.72;;;13.96;60.68
20889;BME280;10604;51.976;7.594;2023-04-24T16:40:43;99998.25;;;14.29;60.24
20889;BME280;10604;51.976;7.594;2023-04-24T16:43:08;99996.72;;;13.93;61.13
20889;BME280;10604;51.976;7.594;2023-04-24T16:45:33;100004.44;;;13.98;60.45
20889;BME280;10604;51.976;7.594;2023-04-24T16:47:59;99998.88;;;14.02;60.62
20889;BME280;10604;51.976;7.594;2023-04-24T16:50:24;99996.53;;;14.43;60.73
20889;BME280;10604;51.976;7.594;2023-04-24T16:52:50;100000.81;;;14.15;58.91
20889;BME280;10604;51.976;7.594;2023-04-24T16:55:15;100002.09;;;14.07;59.22
20889;BME280;10604;51.976;7.594;2023-04-24T16:57:41;100001.69;;;14.15;59.81
20889;BME280;10604;51.976;7.594;2023-04-24T17:00:06;99994.84;;;13.80;60.92
20889;BME280;10604;51.976;7.594;2023-04-24T17:02:32;100008.19;;;14.09;60.77
20889;BME280;10604;51.976;7.594;2023-04-24T17:04:57;99998.16;;;13.67;60.00
20889;BME280;10604;51.976;7.594;2023-04-24T17:07:22;99996.03;;;13.74;60.99
20889;BME280;10604;51.976;7.594;2023-04-24T17:09:47;99999.13;;;13.98;61.52
20889;BME280;10604;51.976;7.594;2023-04-24T17:12:13;99998.97;;;13.69;62.60
20889;BME280;10604;51.976;7.594;2023-04-24T17:14:38;100006.50;;;13.77;62.41
20889;BME280;10604;51.976;7.594;2023-04-24T17:17:03;100005.19;;;14.00;62.90
20889;BME280;10604;51.976;7.594;2023-04-24T17:19:29;100006.50;;;13.77;61.73
20889;BME280;10604;51.976;7.594;2023-04-24T17:21:54;100014.13;;;13.50;62.54
20889;BME280;10604;51.976;7.594;2023-04-24T17:24:21;99999.03;;;13.68;61.24
20889;BME280;10604;51.976;7.594;2023-04-24T17:26:47;100011.19;;;13.39;61.15
20889;BME280;10604;51.976;7.594;2023-04-24T17:29:12;99998.59;;;13.10;60.81
20889;BME280;10604;51.976;7.594;2023-04-24T17:31:37;100008.28;;;13.11;61.29
20889;BME280;10604;51.976;7.594;2023-04-24T17:34:02;100011.47;;;13.17;60.79
20889;BME280;10604;51.976;7.594;2023-04-24T17:36:28;100011.06;;;13.08;61.88
20889;BME280;10604;51.976;7.594;2023-04-24T17:38:53;100019.00;;;13.08;61.59
20889;BME280;10604;51.976;7.594;2023-04-24T17:41:18;100013.88;;;12.87;62.73
20889;BME280;10604;51.976;7.594;2023-04-24T17:43:44;100011.72;;;12.95;62.72
20889;BME280;10604;51.976;7.594;2023-04-24T17:46:09;100016.59;;;12.86;62.80
20889;BME280;10604;51.976;7.594;2023-04-24T17:48:34;100003.28;;;13.22;63.23
20889;BME280;10604;51.976;7.594;2023-04-24T17:51:00;100012.78;;;13.09;63.47
20889;BME280;10604;51.976;7.594;2023-04-24T17:53:25;100014.06;;;13.19;63.80
20889;BME280;10604;51.976;7.594;2023-04-24T17:55:50;100015.91;;;13.17;63.52
20889;BME280;10604;51.976;7.594;2023-04-24T17:58:18;100006.72;;;12.89;64.38
20889;BME280;10604;51.976;7.594;2023-04-24T18:00:44;100012.41;;;12.99;63.93
20889;BME280;10604;51.976;7.594;2023-04-24T18:03:09;100019.44;;;13.00;64.21
20889;BME280;10604;51.976;7.594;2023-04-24T18:05:36;100012.47;;;13.15;64.56
20889;BME280;10604;51.976;7.594;2023-04-24T18:08:02;100019.03;;;13.25;64.84
20889;BME280;10604;51.976;7.594;2023-04-24T18:10:28;100019.50;;;12.81;64.92
20889;BME280;10604;51.976;7.594;2023-04-24T18:12:55;100025.56;;;13.01;65.25
20889;BME280;10604;51.976;7.594;2023-04-24T18:15:20;100027.38;;;12.83;65.44
20889;BME280;10604;51.976;7.594;2023-04-24T18:17:46;100028.84;;;12.88;64.89
20889;BME280;10604;51.976;7.594;2023-04-24T18:20:11;100027.75;;;12.92;64.33
20889;BME280;10604;51.976;7.594;2023-04-24T18:22:37;100034.47;;;13.00;64.25
20889;BME280;10604;51.976;7.594;2023-04-24T18:25:03;100048.63;;;12.64;64.32
20889;BME280;10604;51.976;7.594;2023-04-24T18:27:28;100046.28;;;12.75;65.00
20889;BME280;10604;51.976;7.594;2023-04-24T18:29:55;100039.25;;;12.74;64.77
20889;BME280;10604;51.976;7.594;2023-04-24T18:32:20;100048.44;;;12.67;64.60
20889;BME280;10604;51.976;7.594;2023-04-24T18:34:45;100049.53;;;12.63;64.64
20889;BME280;10604;51.976;7.594;2023-04-24T18:37:10;100046.97;;;12.26;65.61
20889;BME280;10604;51.976;7.594;2023-04-24T18:39:36;100052.94;;;12.48;65.40
20889;BME280;10604;51.976;7.594;2023-04-24T18:42:01;100050.59;;;12.59;65.25
20889;BME280;10604;51.976;7.594;2023-04-24T18:44:27;100045.69;;;12.15;65.15
20889;BME280;10604;51.976;7.594;2023-04-24T18:46:52;100056.25;;;12.15;66.16
20889;BME280;10604;51.976;7.594;2023-04-24T18:49:18;100063.44;;;12.13;66.55
20889;BME280;10604;51.976;7.594;2023-04-24T18:51:43;100059.56;;;12.02;66.07
20889;BME280;10604;51.976;7.594;2023-04-24T18:54:08;100072.13;;;11.97;66.94
20889;BME280;10604;51.976;7.594;2023-04-24T18:56:33;100069.56;;;11.95;66.75
20889;BME280;10604;51.976;7.594;2023-04-24T18:58:59;100073.84;;;11.98;66.67
20889;BME280;10604;51.976;7.594;2023-04-24T19:01:24;100069.56;;;11.95;66.22
20889;BME280;10604;51.976;7.594;2023-04-24T19:03:50;100081.41;;;11.87;66.25
20889;BME280;10604;51.976;7.594;2023-04-24T19:06:15;100083.38;;;11.63;66.86
20889;BME280;10604;51.976;7.594;2023-04-24T19:08:40;100089.84;;;11.76;67.45
20889;BME280;10604;51.976;7.594;2023-04-24T19:11:07;100090.88;;;11.92;67.66
20889;BME280;10604;51.976;7.594;2023-04-24T19:13:32;100098.28;;;11.84;67.49
20889;BME280;10604;51.976;7.594;2023-04-24T19:15:57;100084.81;;;11.70;67.98
20889;BME280;10604;51.976;7.594;2023-04-24T19:18:23;100106.84;;;11.89;67.16
20889;BME280;10604;51.976;7.594;2023-04-24T19:20:50;100099.59;;;11.74;68.07
20889;BME280;10604;51.976;7.594;2023-04-24T19:23:15;100098.75;;;11.53;67.76
20889;BME280;10604;51.976;7.594;2023-04-24T19:25:40;100108.34;;;11.56;67.74
20889;BME280;10604;51.976;7.594;2023-04-24T19:28:06;100107.94;;;11.65;67.38
20889;BME280;10604;51.976;7.594;2023-04-24T19:30:31;100119.34;;;11.65;67.56
20889;BME280;10604;51.976;7.594;2023-04-24T19:32:56;100110.34;;;11.51;67.79
20889;BME280;10604;51.976;7.594;2023-04-24T19:35:22;100114.16;;;11.44;68.12
20889;BME280;10604;51.976;7.594;2023-04-24T19:37:47;100115.59;;;11.30;68.66
20889;BME280;10604;51.976;7.594;2023-04-24T19:40:12;100122.09;;;11.02;69.26
20889;BME280;10604;51.976;7.594;2023-04-24T19:42:37;100113.50;;;11.18;69.08
20889;BME280;10604;51.976;7.594;2023-04-24T19:45:03;100115.06;;;11.02;69.37
20889;BME280;10604;51.976;7.594;2023-04-24T19:47:28;100119.41;;;11.03;69.72
20889;BME280;10604;51.976;7.594;2023-04-24T19:49:54;100108.19;;;10.78;70.05
20889;BME280;10604;51.976;7.594;2023-04-24T19:52:20;100121.41;;;10.98;70.07
20889;BME280;10604;51.976;7.594;2023-04-24T19:54:45;100128.50;;;10.96;69.87
20889;BME280;10604;51.976;7.594;2023-04-24T19:57:10;100118.34;;;10.87;70.10
20889;BME280;10604;51.976;7.594;2023-04-24T19:59:36;100116.75;;;10.83;70.64
20889;BME280;10604;51.976;7.594;2023-04-24T20:02:01;100121.78;;;10.89;70.52
20889;BME280;10604;51.976;7.594;2023-04-24T20:04:26;100120.56;;;10.76;70.75
20889;BME280;10604;51.976;7.594;2023-04-24T20:06:52;100121.78;;;10.89;70.65
20889;BME280;10604;51.976;7.594;2023-04-24T20:09:17;100122.16;;;10.80;70.80
20889;BME280;10604;51.976;7.594;2023-04-24T20:11:42;100116.09;;;10.78;70.68
20889;BME280;10604;51.976;7.594;2023-04-24T20:14:09;100121.91;;;10.86;70.92
20889;BME280;10604;51.976;7.594;2023-04-24T20:16:34;100119.56;;;11.00;70.42
20889;BME280;10604;51.976;7.594;2023-04-24T20:18:59;100119.09;;;10.69;70.96
20889;BME280;10604;51.976;7.594;2023-04-24T20:21:25;100120.94;;;10.67;71.56
20889;BME280;10604;51.976;7.594;2023-04-24T20:23:50;100123.03;;;10.58;71.44
20889;BME280;10604;51.976;7.594;2023-04-24T20:26:16;100124.72;;;10.59;71.40
20889;BME280;10604;51.976;7.594;2023-04-24T20:28:42;100121.78;;;10.45;71.77
20889;BME280;10604;51.976;7.594;2023-04-24T20:31:12;100119.25;;;10.66;71.38
20889;BME280;10604;51.976;7.594;2023-04-24T20:33:38;100119.16;;;10.45;71.36
20889;BME280;10604;51.976;7.594;2023-04-24T20:36:05;100116.97;;;10.56;71.29
20889;BME280;10604;51.976;7.594;2023-04-24T20:38:31;100115.78;;;10.42;70.60
20889;BME280;10604;51.976;7.594;2023-04-24T20:40:57;100112.97;;;10.46;71.25
20889;BME280;10604;51.976;7.594;2023-04-24T20:43:24;100113.81;;;10.25;70.45
20889;BME280;10604;51.976;7.594;2023-04-24T20:45:50;100109.56;;;10.44;70.56
20889;BME280;10604;51.976;7.594;2023-04-24T20:48:15;100118.81;;;10.31;69.96
20889;BME280;10604;51.976;7.594;2023-04-24T20:50:41;100118.63;;;10.37;70.77
20889;BME280;10604;51.976;7.594;2023-04-24T20:53:07;100116.66;;;10.42;70.27
20889;BME280;10604;51.976;7.594;2023-04-24T20:55:33;100124.09;;;10.31;70.55
20889;BME280;10604;51.976;7.594;2023-04-24T20:57:58;100121.84;;;10.22;70.85
20889;BME280;10604;51.976;7.594;2023-04-24T21:00:24;100122.97;;;10.15;71.36
20889;BME280;10604;51.976;7.594;2023-04-24T21:02:49;100121.25;;;10.14;71.82
20889;BME280;10604;51.976;7.594;2023-04-24T21:05:15;100115.53;;;10.26;71.18
20889;BME280;10604;51.976;7.594;2023-04-24T21:07:40;100122.06;;;9.93;72.58
20889;BME280;10604;51.976;7.594;2023-04-24T21:10:05;100118.38;;;9.97;72.81
20889;BME280;10604;51.976;7.594;2023-04-24T21:12:31;100120.44;;;9.89;72.82
20889;BME280;10604;51.976;7.594;2023-04-24T21:14:56;100125.13;;;9.80;72.49
20889;BME280;10604;51.976;7.594;2023-04-24T21:17:21;100120.28;;;9.93;72.67
20889;BME280;10604;51.976;7.594;2023-04-24T21:19:47;100128.22;;;9.92;72.68
20889;BME280;10604;51.976;7.594;2023-04-24T21:22:12;100126.69;;;9.86;72.96
20889;BME280;10604;51.976;7.594;2023-04-24T21:24:37;100130.19;;;9.87;72.72
20889;BME280;10604;51.976;7.594;2023-04-24T21:27:02;100126.06;;;9.79;72.75
20889;BME280;10604;51.976;7.594;2023-04-24T21:29:28;100132.53;;;9.71;73.11
20889;BME280;10604;51.976;7.594;2023-04-24T21:31:53;100127.19;;;9.96;72.87
20889;BME280;10604;51.976;7.594;2023-04-24T21:34:19;100132.22;;;10.02;72.45
20889;BME280;10604;51.976;7.594;2023-04-24T21:36:44;100123.19;;;9.86;72.17
20889;BME280;10604;51.976;7.594;2023-04-24T21:39:11;100120.66;;;9.82;72.40
20889;BME280;10604;51.976;7.594;2023-04-24T21:41:36;100121.25;;;10.14;72.00
20889;BME280;10604;51.976;7.594;2023-04-24T21:44:02;100128.63;;;10.04;71.82
20889;BME280;10604;51.976;7.594;2023-04-24T21:46:27;100123.88;;;9.91;72.18
20889;BME280;10604;51.976;7.594;2023-04-24T21:48:52;100129.38;;;9.85;72.38
20889;BME280;10604;51.976;7.594;2023-04-24T21:51:18;100122.50;;;10.04;72.20
20889;BME280;10604;51.976;7.594;2023-04-24T21:53:44;100123.16;;;10.09;71.88
20889;BME280;10604;51.976;7.594;2023-04-24T21:56:09;100126.13;;;10.01;71.67
20889;BME280;10604;51.976;7.594;2023-04-24T21:58:35;100122.16;;;10.13;71.41
20889;BME280;10604;51.976;7.594;2023-04-24T22:01:00;100122.97;;;10.15;71.20
20889;BME280;10604;51.976;7.594;2023-04-24T22:03:26;100109.28;;;10.29;70.89
20889;BME280;10604;51.976;7.594;2023-04-24T22:05:51;100110.59;;;10.17;71.16